Alfonso Bonilla Aragon International Airport
SKCL : rendu visible

Aérodrome :











RETROUVEZ-NOUS SUR...

 
LOGIN :

S'inscrire | Disclaimer

   EN    FR    IT 

 









Légende :    VFR   VFR Marginal   IFR   IFR Intensif   IFR Très Intensif
Visi : 
Plafond : 
>= 8 km
>= 3000ft
5 à 8 km
1000 à 3000 ft
1500m à 5 km
500 à 1000 ft
800 à 1500m
200 à 500 ft
< 800m
< 200 ft
Symboles :   Orages  Brouillard  Fortes neiges  Fortes précipitations  Vent > 20 kt






- Altitude de l'aérodrome : 3162 ft
- Code IATA : CLO


SKCL - Alfonso Bonilla Aragon International

DERNIER METAR :
  • 042000Z 31008KT 9999 SCT023 SCT100 29/19 Q1012 NOSIG RMK A2989

METARs EXPIRÉS :
  • 041900Z 35005KT 9999 SCT023 SCT100 29/20 Q1013 NOSIG RMK A2992
  • 041800Z VRB03KT 9999 SCT020 30/19 Q1014 NOSIG RMK A2996

TAF TAF SKCL
Valide du 04 à 18h jusqu'au 05 à 18h UTC


041630Z 0418/0518 34008KT 9999 SCT020 SCT130
PROB30
TEMPO 0418/0420 8000 VCSH SCT018TCU
TEMPO 0422/0424 7000 VCSH SCT015TCU
PROB30
TEMPO 0500/0502 6000 DZRA
BECMG 0502/0503 VRB03KT FEW017 BKN100
TEMPO 0511/0514 8000 VCFG TX31/0419Z TN19/0511Z
FIR SKED / Amérique du Sud



MET'MAP, la Météo Aéronautique d'un coup d'oeil ! - Copyright ORBIFLY Décembre 2007 - Disclaimer

ORBIFLY MET'MAP TEAM :

Programmation & Développement : Alexandra Zaïnal
Sur une idée originale de : Baudouin d'Aumeries
Assistance à la programmation : Marc-Olivier Méhu
Soutien technique & logistique : Manuel Goepfert

Contact : metmap@orbifly.com




SOURCES & CREDITS :

   NOAA       Earth
Advisory